createdAt,value
2022-10-31T00:02:12.637Z,12.77
2022-10-31T00:04:41.743Z,12.78
2022-10-31T00:07:10.781Z,12.86
2022-10-31T00:09:39.742Z,12.79
2022-10-31T00:12:08.690Z,12.75
2022-10-31T00:14:39.149Z,12.85
2022-10-31T00:17:08.176Z,12.85
2022-10-31T00:19:37.260Z,12.77
2022-10-31T00:22:06.243Z,12.72
2022-10-31T00:24:35.213Z,12.82
2022-10-31T00:27:04.236Z,12.78
2022-10-31T00:29:33.236Z,12.81
2022-10-31T00:32:02.313Z,12.94
2022-10-31T00:34:32.830Z,12.97
2022-10-31T00:37:01.829Z,13.05
2022-10-31T00:39:30.736Z,12.97
2022-10-31T00:42:01.241Z,12.92
2022-10-31T00:44:31.873Z,12.83
2022-10-31T00:47:00.805Z,12.77
2022-10-31T00:49:29.815Z,12.83
2022-10-31T00:52:00.112Z,12.87
2022-10-31T00:54:29.250Z,12.95
2022-10-31T00:56:58.259Z,12.79
2022-10-31T00:59:27.324Z,12.71
2022-10-31T01:01:56.395Z,12.61
2022-10-31T01:04:25.575Z,12.63
2022-10-31T01:06:54.567Z,12.62
2022-10-31T01:09:25.140Z,12.64
2022-10-31T01:11:58.633Z,12.63
2022-10-31T01:14:27.680Z,12.58
2022-10-31T01:16:59.505Z,12.55
2022-10-31T01:19:28.541Z,12.47
2022-10-31T01:21:58.144Z,12.47
2022-10-31T01:24:27.159Z,12.49
2022-10-31T01:26:56.149Z,12.53
2022-10-31T01:29:25.161Z,12.67
2022-10-31T01:31:54.113Z,12.71
2022-10-31T01:34:23.196Z,12.83
2022-10-31T01:36:52.617Z,12.85
2022-10-31T01:39:22.203Z,12.84
2022-10-31T01:41:53.708Z,12.79
2022-10-31T01:44:26.265Z,12.67
2022-10-31T01:47:05.302Z,12.66
2022-10-31T01:49:45.752Z,12.67
2022-10-31T01:52:30.891Z,12.48
2022-10-31T01:55:06.354Z,12.47
2022-10-31T01:57:37.784Z,12.67
2022-10-31T02:00:10.074Z,12.65
2022-10-31T02:02:39.264Z,12.66
2022-10-31T02:05:14.491Z,12.70
2022-10-31T02:07:49.186Z,12.60
2022-10-31T02:10:18.866Z,12.65
2022-10-31T02:12:48.162Z,12.54
2022-10-31T02:15:17.123Z,12.57
2022-10-31T02:17:46.682Z,12.55
2022-10-31T02:20:22.291Z,12.51
2022-10-31T02:23:22.265Z,12.43
2022-10-31T02:26:08.823Z,12.40
2022-10-31T02:29:08.275Z,12.29
2022-10-31T02:31:40.282Z,12.23
2022-10-31T02:34:32.206Z,12.37
2022-10-31T02:37:22.217Z,12.33
2022-10-31T02:39:54.201Z,12.31
2022-10-31T02:42:45.022Z,12.31
2022-10-31T02:45:43.090Z,12.29
2022-10-31T02:48:20.896Z,12.26
2022-10-31T02:50:59.270Z,12.20
2022-10-31T02:53:30.886Z,12.20
2022-10-31T02:56:05.719Z,12.20
2022-10-31T02:58:37.655Z,12.15
2022-10-31T03:01:21.172Z,12.13
2022-10-31T03:03:53.135Z,12.16
2022-10-31T03:06:43.034Z,12.07
2022-10-31T03:09:21.945Z,12.13
2022-10-31T03:11:54.006Z,12.11
2022-10-31T03:14:25.810Z,12.07
2022-10-31T03:16:59.479Z,12.08
2022-10-31T03:20:22.567Z,12.02
2022-10-31T03:22:56.194Z,11.85
2022-10-31T03:25:30.418Z,11.63
2022-10-31T03:28:01.922Z,11.56
2022-10-31T03:30:37.132Z,11.38
2022-10-31T03:33:10.193Z,11.39
2022-10-31T03:35:42.818Z,11.40
2022-10-31T03:38:23.516Z,11.35
2022-10-31T03:40:51.957Z,11.30
2022-10-31T03:43:24.181Z,11.27
2022-10-31T03:45:53.884Z,11.19
2022-10-31T03:48:31.785Z,11.08
2022-10-31T03:51:24.261Z,11.03
2022-10-31T03:53:59.174Z,10.86
2022-10-31T03:56:33.606Z,10.81
2022-10-31T03:59:23.185Z,10.71
2022-10-31T04:01:57.010Z,10.78
2022-10-31T04:04:34.177Z,10.75
2022-10-31T04:07:08.034Z,10.81
2022-10-31T04:09:42.438Z,10.84
2022-10-31T04:12:17.957Z,10.98
2022-10-31T04:14:52.606Z,11.14
2022-10-31T04:17:25.647Z,11.19
2022-10-31T04:19:55.057Z,11.36
2022-10-31T04:22:23.933Z,11.45
2022-10-31T04:24:54.528Z,11.38
2022-10-31T04:27:23.692Z,11.48
2022-10-31T04:29:54.225Z,11.49
2022-10-31T04:32:40.291Z,11.48
2022-10-31T04:35:11.325Z,11.33
2022-10-31T04:37:44.935Z,11.45
2022-10-31T04:40:14.035Z,11.42
2022-10-31T04:43:07.997Z,11.24
2022-10-31T04:45:43.376Z,11.11
2022-10-31T04:48:18.534Z,11.18
2022-10-31T04:50:47.848Z,11.12
2022-10-31T04:53:22.423Z,11.13
2022-10-31T04:55:53.944Z,11.09
2022-10-31T04:58:26.431Z,11.07
2022-10-31T05:00:57.892Z,11.09
2022-10-31T05:03:27.242Z,11.08
2022-10-31T05:06:05.366Z,10.94
2022-10-31T05:08:34.318Z,10.92
2022-10-31T05:11:09.551Z,10.93
2022-10-31T05:13:38.476Z,11.02
2022-10-31T05:16:09.734Z,11.09
2022-10-31T05:18:39.076Z,11.31
2022-10-31T05:21:11.654Z,11.14
2022-10-31T05:23:45.938Z,11.23
2022-10-31T05:26:29.048Z,11.11
2022-10-31T05:29:03.437Z,11.03
2022-10-31T05:31:35.165Z,10.95
2022-10-31T05:34:04.303Z,10.94
2022-10-31T05:36:35.904Z,10.83
2022-10-31T05:39:05.761Z,10.77
2022-10-31T05:41:37.548Z,10.82
2022-10-31T05:44:18.430Z,10.69
2022-10-31T05:46:50.547Z,10.73
2022-10-31T05:49:19.519Z,10.67
2022-10-31T05:51:48.347Z,10.65
2022-10-31T05:54:19.773Z,10.77
2022-10-31T05:56:48.536Z,10.82
2022-10-31T05:59:17.266Z,10.82
2022-10-31T06:01:48.974Z,10.90
2022-10-31T06:04:20.507Z,11.00
2022-10-31T06:06:49.232Z,11.06
2022-10-31T06:09:22.193Z,11.14
2022-10-31T06:11:52.128Z,11.15
2022-10-31T06:14:20.889Z,11.27
2022-10-31T06:16:49.523Z,11.29
2022-10-31T06:19:20.109Z,11.40
2022-10-31T06:21:48.792Z,11.46
2022-10-31T06:24:18.953Z,11.51
2022-10-31T06:26:47.464Z,11.59
2022-10-31T06:29:16.082Z,11.67
2022-10-31T06:31:44.658Z,11.87
2022-10-31T06:34:13.263Z,11.97
2022-10-31T06:36:41.804Z,12.16
2022-10-31T06:39:13.461Z,12.27
2022-10-31T06:41:42.619Z,12.31
2022-10-31T06:44:11.295Z,12.44
2022-10-31T06:46:39.975Z,12.56
2022-10-31T06:49:10.210Z,12.63
2022-10-31T06:51:43.479Z,12.80
2022-10-31T06:57:55.557Z,12.95
2022-10-31T07:00:25.999Z,13.17
2022-10-31T07:03:11.090Z,13.35
2022-10-31T07:12:21.624Z,13.68
2022-10-31T07:14:52.685Z,13.58
2022-10-31T07:17:28.747Z,13.58
2022-10-31T07:20:21.353Z,13.69
2022-10-31T07:26:18.015Z,14.01
2022-10-31T07:28:50.215Z,14.18
2022-10-31T07:31:19.016Z,14.17
2022-10-31T07:33:49.280Z,14.33
2022-10-31T07:36:17.994Z,14.24
2022-10-31T07:38:49.074Z,14.26
2022-10-31T07:41:22.206Z,14.40
2022-10-31T07:43:55.362Z,14.32
2022-10-31T07:46:24.848Z,14.47
2022-10-31T07:48:58.295Z,14.72
2022-10-31T07:51:31.433Z,14.76
2022-10-31T07:54:04.556Z,14.83
2022-10-31T07:56:42.355Z,14.89
2022-10-31T07:59:17.772Z,14.83
2022-10-31T08:01:46.870Z,14.82
2022-10-31T08:10:42.626Z,15.25
2022-10-31T08:16:59.779Z,15.89
2022-10-31T08:26:31.092Z,15.95
2022-10-31T08:29:00.451Z,16.33
2022-10-31T08:31:48.327Z,16.16
2022-10-31T08:34:22.075Z,16.24
2022-10-31T08:36:56.687Z,15.60
2022-10-31T08:39:33.593Z,15.92
2022-10-31T08:44:58.344Z,16.21
2022-10-31T08:47:30.930Z,16.33
2022-10-31T08:49:59.632Z,16.48
2022-10-31T08:52:58.976Z,16.68
2022-10-31T08:58:09.424Z,17.00
2022-10-31T09:00:46.136Z,17.36
2022-10-31T09:06:10.646Z,17.21
2022-10-31T09:08:39.591Z,17.13
2022-10-31T09:11:08.459Z,17.27
2022-10-31T09:13:42.862Z,17.30
2022-10-31T09:22:23.578Z,17.79
2022-10-31T09:25:50.774Z,17.68
2022-10-31T09:28:23.216Z,17.96
2022-10-31T09:30:56.781Z,18.12
2022-10-31T09:33:25.848Z,18.16
2022-10-31T09:36:01.486Z,18.40
2022-10-31T09:38:32.271Z,18.41
2022-10-31T09:41:29.395Z,18.65
2022-10-31T09:44:13.404Z,18.65
2022-10-31T09:47:05.735Z,18.81
2022-10-31T09:53:07.813Z,18.86
2022-10-31T09:55:48.232Z,18.56
2022-10-31T09:58:19.996Z,18.80
2022-10-31T10:00:50.408Z,19.11
2022-10-31T10:03:41.512Z,19.20
2022-10-31T10:06:18.765Z,19.30
2022-10-31T10:08:50.995Z,19.54
2022-10-31T10:11:56.336Z,19.49
2022-10-31T10:14:43.498Z,19.61
2022-10-31T10:17:28.136Z,19.79
2022-10-31T10:20:15.042Z,19.82
2022-10-31T10:23:00.893Z,19.89
2022-10-31T10:25:41.739Z,19.99
2022-10-31T10:28:32.757Z,19.53
2022-10-31T10:31:09.984Z,19.98
2022-10-31T10:33:47.515Z,20.31
2022-10-31T10:36:35.551Z,20.28
2022-10-31T10:39:07.238Z,20.36
2022-10-31T10:41:35.894Z,20.48
2022-10-31T10:44:07.577Z,20.52
2022-10-31T10:47:05.839Z,20.69
2022-10-31T10:49:40.258Z,20.42
2022-10-31T10:52:45.902Z,20.28
2022-10-31T10:55:37.838Z,20.47
2022-10-31T10:58:11.488Z,20.74
2022-10-31T11:00:48.581Z,20.81
2022-10-31T11:03:18.875Z,20.78
2022-10-31T11:06:02.791Z,20.78
2022-10-31T11:08:38.322Z,20.77
2022-10-31T11:11:23.455Z,20.91
2022-10-31T11:13:55.021Z,21.00
2022-10-31T11:16:36.758Z,20.86
2022-10-31T11:22:31.195Z,21.21
2022-10-31T11:25:03.753Z,21.11
2022-10-31T11:27:37.682Z,20.89
2022-10-31T11:30:08.700Z,20.86
2022-10-31T11:32:39.090Z,20.91
2022-10-31T11:35:10.978Z,20.99
2022-10-31T11:37:51.432Z,21.06
2022-10-31T11:40:26.230Z,21.13
2022-10-31T11:42:59.640Z,21.24
2022-10-31T11:49:22.379Z,21.28
2022-10-31T11:55:44.670Z,21.16
2022-10-31T11:58:28.038Z,21.15
2022-10-31T12:00:59.191Z,21.27
2022-10-31T12:03:39.911Z,21.31
2022-10-31T12:06:39.137Z,21.44
2022-10-31T12:09:23.334Z,21.38
2022-10-31T12:12:09.078Z,21.41
2022-10-31T12:15:07.184Z,21.57
2022-10-31T12:17:45.015Z,21.71
2022-10-31T12:20:36.109Z,21.74
2022-10-31T12:23:20.148Z,21.75
2022-10-31T12:26:11.556Z,21.79
2022-10-31T12:29:15.178Z,21.85
2022-10-31T12:31:52.520Z,21.68
2022-10-31T12:34:24.265Z,21.79
2022-10-31T12:37:07.403Z,21.77
2022-10-31T12:39:48.526Z,21.78
2022-10-31T12:42:24.095Z,21.81
2022-10-31T12:45:18.449Z,21.84
2022-10-31T12:48:09.060Z,21.86
2022-10-31T12:50:49.597Z,21.81
2022-10-31T12:53:21.237Z,21.69
2022-10-31T12:55:55.785Z,21.70
2022-10-31T12:58:32.197Z,21.64
2022-10-31T13:01:29.188Z,21.71
2022-10-31T13:04:06.645Z,21.65
2022-10-31T13:06:43.543Z,21.72
2022-10-31T13:09:21.117Z,21.59
2022-10-31T13:12:07.760Z,21.67
2022-10-31T13:14:55.846Z,21.70
2022-10-31T13:17:27.519Z,21.58
2022-10-31T13:20:11.597Z,21.74
2022-10-31T13:22:46.280Z,21.57
2022-10-31T13:25:15.293Z,21.52
2022-10-31T13:27:46.987Z,21.60
2022-10-31T13:30:19.186Z,21.55
2022-10-31T13:32:53.305Z,21.66
2022-10-31T13:35:35.330Z,21.67
2022-10-31T13:38:06.945Z,21.66
2022-10-31T13:40:44.465Z,21.66
2022-10-31T13:43:19.511Z,21.42
2022-10-31T13:45:55.406Z,21.59
2022-10-31T13:48:43.560Z,21.52
2022-10-31T13:51:16.359Z,21.56
2022-10-31T13:53:59.902Z,21.54
2022-10-31T13:56:34.635Z,21.53
2022-10-31T13:59:19.006Z,21.42
2022-10-31T14:02:02.623Z,21.38
2022-10-31T14:07:25.218Z,21.17
2022-10-31T14:09:59.424Z,21.06
2022-10-31T14:12:46.058Z,21.01
2022-10-31T14:15:29.777Z,20.89
2022-10-31T14:18:04.563Z,20.38
2022-10-31T14:20:47.068Z,20.87
2022-10-31T14:23:43.405Z,20.88
2022-10-31T14:26:33.418Z,20.80
2022-10-31T14:29:04.885Z,20.72
2022-10-31T14:31:46.028Z,20.70
2022-10-31T14:34:31.676Z,20.68
2022-10-31T14:37:30.588Z,20.59
2022-10-31T14:40:17.393Z,20.41
2022-10-31T14:43:01.417Z,20.36
2022-10-31T14:45:45.137Z,20.22
2022-10-31T14:48:40.726Z,20.11
2022-10-31T14:51:18.217Z,19.95
2022-10-31T14:53:52.729Z,19.88
2022-10-31T14:56:27.207Z,19.78
2022-10-31T14:59:01.234Z,19.65
2022-10-31T15:01:38.861Z,19.37
2022-10-31T15:04:23.240Z,19.37
2022-10-31T15:06:52.741Z,19.22
2022-10-31T15:09:33.824Z,19.12
2022-10-31T15:12:07.195Z,18.98
2022-10-31T15:14:35.918Z,18.78
2022-10-31T15:17:07.616Z,18.66
2022-10-31T15:19:37.671Z,18.47
2022-10-31T15:22:06.622Z,18.40
2022-10-31T15:24:38.393Z,18.25
2022-10-31T15:27:09.021Z,18.10
2022-10-31T15:29:40.112Z,17.99
2022-10-31T15:32:31.178Z,17.88
2022-10-31T15:34:59.837Z,17.75
2022-10-31T15:37:29.802Z,17.58
2022-10-31T15:39:59.820Z,17.42
2022-10-31T15:42:34.615Z,17.31
2022-10-31T15:45:18.173Z,17.25
2022-10-31T15:48:08.160Z,17.17
2022-10-31T15:50:48.056Z,17.09
2022-10-31T15:53:28.872Z,16.94
2022-10-31T15:56:00.214Z,16.86
2022-10-31T15:58:34.060Z,16.75
2022-10-31T16:01:08.323Z,16.69
2022-10-31T16:03:38.600Z,16.54
2022-10-31T16:06:09.218Z,16.45
2022-10-31T16:08:39.063Z,16.43
2022-10-31T16:11:16.836Z,16.32
2022-10-31T16:13:57.237Z,16.20
2022-10-31T16:16:35.322Z,16.10
2022-10-31T16:19:01.191Z,15.98
2022-10-31T16:21:40.214Z,15.91
2022-10-31T16:24:23.746Z,15.82
2022-10-31T16:26:55.294Z,15.71
2022-10-31T16:29:34.985Z,15.67
2022-10-31T16:32:06.568Z,15.65
2022-10-31T16:34:35.210Z,15.56
2022-10-31T16:37:07.530Z,15.50
2022-10-31T16:39:36.165Z,15.48
2022-10-31T16:42:08.974Z,15.47
2022-10-31T16:44:38.117Z,15.46
2022-10-31T16:47:09.688Z,15.32
2022-10-31T16:49:38.348Z,15.24
2022-10-31T16:52:06.991Z,15.22
2022-10-31T16:54:35.713Z,15.13
2022-10-31T16:57:06.763Z,15.02
2022-10-31T16:59:36.179Z,14.98
2022-10-31T17:02:06.481Z,14.90
2022-10-31T17:04:37.338Z,14.82
2022-10-31T17:07:05.947Z,14.81
2022-10-31T17:09:36.067Z,14.76
2022-10-31T17:12:11.533Z,14.72
2022-10-31T17:14:40.195Z,14.80
2022-10-31T17:17:13.111Z,14.75
2022-10-31T17:19:55.489Z,14.61
2022-10-31T17:22:25.673Z,14.53
2022-10-31T17:24:54.512Z,14.52
2022-10-31T17:27:23.209Z,14.54
2022-10-31T17:29:53.393Z,14.45
2022-10-31T17:32:22.077Z,14.28
2022-10-31T17:34:50.603Z,14.32
2022-10-31T17:37:21.941Z,14.20
2022-10-31T17:39:50.617Z,14.19
2022-10-31T17:42:19.240Z,14.13
2022-10-31T17:44:48.627Z,14.17
2022-10-31T17:47:18.784Z,14.12
2022-10-31T17:49:47.523Z,13.98
2022-10-31T17:52:16.407Z,13.95
2022-10-31T17:54:45.071Z,13.90
2022-10-31T17:57:16.033Z,13.86
2022-10-31T17:59:44.727Z,13.91
2022-10-31T18:02:13.665Z,13.86
2022-10-31T18:04:42.380Z,13.82
2022-10-31T18:07:10.985Z,13.76
2022-10-31T18:09:41.275Z,13.68
2022-10-31T18:12:09.807Z,13.63
2022-10-31T18:14:38.521Z,13.59
2022-10-31T18:17:13.147Z,13.60
2022-10-31T18:19:41.933Z,13.59
2022-10-31T18:22:12.006Z,13.48
2022-10-31T18:24:42.480Z,13.49
2022-10-31T18:27:11.520Z,13.41
2022-10-31T18:29:40.273Z,13.43
2022-10-31T18:32:09.835Z,12.84
2022-10-31T18:34:38.892Z,13.43
2022-10-31T18:37:11.869Z,13.36
2022-10-31T18:39:43.404Z,13.22
2022-10-31T18:42:11.983Z,13.17
2022-10-31T18:44:40.646Z,13.13
2022-10-31T18:47:09.245Z,13.09
2022-10-31T18:49:37.844Z,13.12
2022-10-31T18:52:07.924Z,13.09
2022-10-31T18:54:38.038Z,13.09
2022-10-31T18:57:11.113Z,13.03
2022-10-31T18:59:42.654Z,12.86
2022-10-31T19:02:16.552Z,12.87
2022-10-31T19:04:47.251Z,12.81
2022-10-31T19:07:18.956Z,12.74
2022-10-31T19:09:49.283Z,12.74
2022-10-31T19:12:17.944Z,12.74
2022-10-31T19:14:48.177Z,12.79
2022-10-31T19:17:18.860Z,12.69
2022-10-31T19:19:50.545Z,12.60
2022-10-31T19:22:23.407Z,12.71
2022-10-31T19:25:07.637Z,12.72
2022-10-31T19:27:35.097Z,12.72
2022-10-31T19:30:05.662Z,12.70
2022-10-31T19:32:35.883Z,12.65
2022-10-31T19:35:11.225Z,12.58
2022-10-31T19:37:43.344Z,12.54
2022-10-31T19:40:13.840Z,12.49
2022-10-31T19:42:47.099Z,12.45
2022-10-31T19:45:17.320Z,12.29
2022-10-31T19:47:49.094Z,12.20
2022-10-31T19:50:17.939Z,12.26
2022-10-31T19:52:46.778Z,12.23
2022-10-31T19:55:27.262Z,12.19
2022-10-31T19:58:13.156Z,12.25
2022-10-31T20:00:53.037Z,12.17
2022-10-31T20:03:22.731Z,12.13
2022-10-31T20:05:52.077Z,12.09
2022-10-31T20:08:25.450Z,12.16
2022-10-31T20:10:58.626Z,12.16
2022-10-31T20:13:28.912Z,12.21
2022-10-31T20:16:09.790Z,12.25
2022-10-31T20:18:39.162Z,12.18
2022-10-31T20:21:18.831Z,12.13
2022-10-31T20:23:50.561Z,11.97
2022-10-31T20:26:24.590Z,11.95
2022-10-31T20:28:59.169Z,12.04
2022-10-31T20:31:30.570Z,12.00
2022-10-31T20:33:59.333Z,11.94
2022-10-31T20:39:35.925Z,12.00
2022-10-31T20:42:09.299Z,11.79
2022-10-31T20:44:37.805Z,11.71
2022-10-31T20:47:06.773Z,11.66
2022-10-31T20:49:37.011Z,11.61
2022-10-31T20:52:25.504Z,11.68
2022-10-31T20:54:48.603Z,11.76
2022-10-31T20:57:31.604Z,11.62
2022-10-31T20:59:50.740Z,11.58
2022-10-31T21:02:27.221Z,11.52
2022-10-31T21:04:59.273Z,11.48
2022-10-31T21:10:32.501Z,11.45
2022-10-31T21:10:32.973Z,11.42
2022-10-31T21:13:40.209Z,11.34
2022-10-31T21:16:19.803Z,11.31
2022-10-31T21:19:00.956Z,11.30
2022-10-31T21:21:27.612Z,11.31
2022-10-31T21:24:03.084Z,11.23
2022-10-31T21:26:36.534Z,11.19
2022-10-31T21:29:07.353Z,11.08
2022-10-31T21:31:41.178Z,11.10
2022-10-31T21:34:14.682Z,11.14
2022-10-31T21:36:43.619Z,11.23
2022-10-31T21:39:16.289Z,11.10
2022-10-31T21:41:48.000Z,11.19
2022-10-31T21:44:20.461Z,11.14
2022-10-31T21:46:49.217Z,11.02
2022-10-31T21:49:18.550Z,11.08
2022-10-31T21:51:47.609Z,10.95
2022-10-31T21:54:33.185Z,10.95
2022-10-31T21:57:04.787Z,10.86
2022-10-31T21:59:33.481Z,10.91
2022-10-31T22:02:04.825Z,10.88
2022-10-31T22:04:35.033Z,10.99
2022-10-31T22:07:03.548Z,10.79
2022-10-31T22:09:35.051Z,10.88
2022-10-31T22:12:05.356Z,10.83
2022-10-31T22:14:34.135Z,10.93
2022-10-31T22:17:04.407Z,10.83
2022-10-31T22:19:32.913Z,10.75
2022-10-31T22:22:01.955Z,10.80
2022-10-31T22:24:30.547Z,10.76
2022-10-31T22:26:59.985Z,10.66
2022-10-31T22:29:28.936Z,10.60
2022-10-31T22:31:59.611Z,10.70
2022-10-31T22:34:27.887Z,10.64
2022-10-31T22:36:57.040Z,10.54
2022-10-31T22:39:25.725Z,10.57
2022-10-31T22:41:54.507Z,10.63
2022-10-31T22:44:23.025Z,10.54
2022-10-31T22:46:51.601Z,10.54
2022-10-31T22:49:20.188Z,10.52
2022-10-31T22:51:51.159Z,10.47
2022-10-31T22:54:21.990Z,10.41
2022-10-31T22:56:50.665Z,10.34
2022-10-31T22:59:19.252Z,10.34
2022-10-31T23:01:49.151Z,10.36
2022-10-31T23:04:18.231Z,10.39
2022-10-31T23:06:47.023Z,10.38
2022-10-31T23:09:18.922Z,10.32
2022-10-31T23:11:47.713Z,10.37
2022-10-31T23:14:21.231Z,10.38
2022-10-31T23:16:57.575Z,10.25
2022-10-31T23:19:33.937Z,10.12
2022-10-31T23:22:04.573Z,10.06
2022-10-31T23:24:38.743Z,10.09
2022-10-31T23:27:19.203Z,9.98
2022-10-31T23:29:50.562Z,9.97
2022-10-31T23:32:36.284Z,9.89
2022-10-31T23:35:10.349Z,9.75
2022-10-31T23:37:40.130Z,9.77
2022-10-31T23:40:12.730Z,9.79
2022-10-31T23:42:41.439Z,9.76
2022-10-31T23:45:10.216Z,9.75
2022-10-31T23:47:43.485Z,9.72
2022-10-31T23:50:15.371Z,9.76
2022-10-31T23:52:44.113Z,9.85
2022-10-31T23:55:12.787Z,9.77
2022-10-31T23:57:41.367Z,9.79
